createdAt,value
2018-09-20T00:00:43.630Z,0.58
2018-09-20T00:01:43.644Z,0.63
2018-09-20T00:02:43.813Z,0.17
2018-09-20T00:03:43.891Z,0.34
2018-09-20T00:04:43.995Z,0.38
2018-09-20T00:05:44.106Z,0.56
2018-09-20T00:06:44.225Z,0.44
2018-09-20T00:07:44.521Z,0.58
2018-09-20T00:08:44.716Z,0.37
2018-09-20T00:09:45.093Z,0.06
2018-09-20T00:10:45.157Z,0.00
2018-09-20T00:11:45.269Z,0.00
2018-09-20T00:12:45.390Z,0.00
2018-09-20T00:13:45.487Z,0.00
2018-09-20T00:14:45.833Z,0.01
2018-09-20T00:15:46.168Z,0.00
2018-09-20T00:16:46.495Z,0.00
2018-09-20T00:17:46.618Z,0.00
2018-09-20T00:18:46.658Z,0.00
2018-09-20T00:19:46.872Z,0.00
2018-09-20T00:20:46.865Z,0.45
2018-09-20T00:21:47.054Z,0.81
2018-09-20T00:22:47.249Z,0.86
2018-09-20T00:23:47.292Z,0.89
2018-09-20T00:24:47.572Z,0.45
2018-09-20T00:25:47.617Z,0.20
2018-09-20T00:26:47.727Z,1.00
2018-09-20T00:27:48.502Z,1.04
2018-09-20T00:28:48.129Z,1.02
2018-09-20T00:29:48.866Z,0.80
2018-09-20T00:30:49.472Z,0.94
2018-09-20T00:31:49.053Z,0.72
2018-09-20T00:32:49.482Z,0.52
2018-09-20T00:33:50.006Z,0.45
2018-09-20T00:34:50.841Z,0.67
2018-09-20T00:35:51.039Z,0.80
2018-09-20T00:36:51.134Z,0.08
2018-09-20T00:37:51.464Z,0.03
2018-09-20T00:38:51.468Z,0.00
2018-09-20T00:39:51.282Z,0.00
2018-09-20T00:40:51.685Z,0.01
2018-09-20T00:41:52.088Z,0.00
2018-09-20T00:42:52.199Z,0.00
2018-09-20T00:43:52.297Z,0.00
2018-09-20T00:44:52.391Z,0.01
2018-09-20T00:45:52.388Z,0.01
2018-09-20T00:46:52.690Z,0.00
2018-09-20T00:47:53.041Z,0.00
2018-09-20T00:48:53.367Z,0.00
2018-09-20T00:49:53.659Z,0.00
2018-09-20T00:50:54.247Z,0.00
2018-09-20T00:51:54.228Z,0.00
2018-09-20T00:52:54.438Z,0.00
2018-09-20T00:53:54.590Z,0.00
2018-09-20T00:54:55.042Z,0.00
2018-09-20T00:55:55.148Z,0.00
2018-09-20T00:57:55.687Z,0.00
2018-09-20T00:58:55.694Z,0.00
2018-09-20T00:59:55.828Z,0.00
2018-09-20T01:00:55.972Z,0.00
2018-09-20T01:01:56.234Z,0.00
2018-09-20T01:02:56.361Z,0.00
2018-09-20T01:03:56.468Z,0.00
2018-09-20T01:04:56.581Z,0.00
2018-09-20T01:05:56.862Z,0.00
2018-09-20T01:06:56.961Z,0.00
2018-09-20T01:07:57.008Z,0.00
2018-09-20T01:08:57.251Z,0.00
2018-09-20T01:09:57.392Z,0.00
2018-09-20T01:10:57.440Z,0.00
2018-09-20T01:11:57.551Z,0.00
2018-09-20T01:12:57.704Z,0.00
2018-09-20T01:13:57.792Z,0.00
2018-09-20T01:14:57.793Z,0.00
2018-09-20T01:15:57.936Z,0.00
2018-09-20T01:16:58.040Z,0.00
2018-09-20T01:17:58.172Z,0.00
2018-09-20T01:18:58.205Z,0.00
2018-09-20T01:19:58.258Z,0.00
2018-09-20T01:20:58.334Z,0.00
2018-09-20T01:21:58.427Z,0.00
2018-09-20T01:22:58.551Z,0.00
2018-09-20T01:23:58.684Z,0.00
2018-09-20T01:24:59.282Z,0.00
2018-09-20T01:25:59.574Z,0.00
2018-09-20T01:26:59.694Z,0.00
2018-09-20T01:27:59.952Z,0.00
2018-09-20T01:29:00.082Z,0.00
2018-09-20T01:30:00.499Z,0.00
2018-09-20T01:31:00.333Z,0.00
2018-09-20T01:32:00.439Z,0.00
2018-09-20T01:33:00.569Z,0.00
2018-09-20T01:34:00.699Z,0.21
2018-09-20T01:35:00.766Z,0.08
2018-09-20T01:36:00.982Z,0.00
2018-09-20T01:37:01.277Z,0.01
2018-09-20T01:38:01.904Z,0.00
2018-09-20T01:39:01.416Z,0.00
2018-09-20T01:40:02.183Z,0.00
2018-09-20T01:42:02.556Z,0.00
2018-09-20T01:43:03.162Z,0.01
2018-09-20T01:44:03.058Z,0.00
2018-09-20T01:45:03.985Z,0.00
2018-09-20T01:46:04.198Z,0.00
2018-09-20T01:47:04.644Z,0.00
2018-09-20T01:48:05.042Z,0.00
2018-09-20T01:49:05.146Z,0.00
2018-09-20T01:50:05.729Z,0.00
2018-09-20T01:51:06.173Z,0.00
2018-09-20T01:52:06.075Z,0.00
2018-09-20T01:53:06.812Z,0.00
2018-09-20T01:54:06.626Z,0.01
2018-09-20T01:55:07.116Z,0.00
2018-09-20T01:56:07.387Z,0.00
2018-09-20T01:57:07.427Z,0.00
2018-09-20T01:58:07.737Z,0.00
2018-09-20T01:59:08.121Z,0.00
2018-09-20T02:00:08.471Z,0.00
2018-09-20T02:01:08.499Z,0.00
2018-09-20T02:02:08.690Z,0.00
2018-09-20T02:03:09.080Z,0.01
2018-09-20T02:04:10.008Z,0.00
2018-09-20T02:05:09.677Z,0.00
2018-09-20T02:06:09.725Z,0.00
2018-09-20T02:07:09.768Z,0.00
2018-09-20T02:08:09.773Z,0.00
2018-09-20T02:09:09.800Z,0.00
2018-09-20T02:10:10.064Z,0.00
2018-09-20T02:11:10.323Z,0.00
2018-09-20T02:12:10.424Z,0.00
2018-09-20T02:13:10.560Z,0.00
2018-09-20T02:14:10.691Z,0.00
2018-09-20T02:15:11.058Z,0.00
2018-09-20T02:16:11.107Z,0.00
2018-09-20T02:17:11.565Z,0.00
2018-09-20T02:18:11.714Z,0.00
2018-09-20T02:19:11.885Z,0.00
2018-09-20T02:20:12.111Z,0.00
2018-09-20T02:21:12.228Z,0.00
2018-09-20T02:22:12.649Z,0.00
2018-09-20T02:23:12.764Z,0.00
2018-09-20T02:24:13.071Z,0.00
2018-09-20T02:25:13.371Z,0.00
2018-09-20T02:26:13.726Z,0.00
2018-09-20T02:27:14.090Z,0.00
2018-09-20T02:28:14.391Z,0.00
2018-09-20T02:29:14.429Z,0.06
2018-09-20T02:30:15.035Z,0.44
2018-09-20T02:31:14.540Z,0.58
2018-09-20T02:32:15.200Z,0.45
2018-09-20T02:33:15.429Z,0.77
2018-09-20T02:34:15.700Z,0.48
2018-09-20T02:35:16.107Z,0.54
2018-09-20T02:36:16.258Z,0.38
2018-09-20T02:37:16.684Z,0.57
2018-09-20T02:38:17.377Z,0.42
2018-09-20T02:39:17.355Z,0.35
2018-09-20T02:40:17.487Z,0.65
2018-09-20T02:41:17.682Z,0.55
2018-09-20T02:42:18.185Z,0.37
2018-09-20T02:43:17.750Z,0.21
2018-09-20T02:44:17.815Z,0.25
2018-09-20T02:45:18.560Z,0.00
2018-09-20T02:46:18.515Z,0.00
2018-09-20T02:47:19.656Z,0.00
2018-09-20T02:48:19.460Z,0.01
2018-09-20T02:49:20.056Z,0.29
2018-09-20T02:50:20.285Z,0.48
2018-09-20T02:51:20.399Z,0.32
2018-09-20T02:52:20.600Z,0.10
2018-09-20T02:53:20.612Z,0.00
2018-09-20T02:54:20.824Z,0.00
2018-09-20T02:55:20.931Z,0.00
2018-09-20T02:56:21.145Z,0.00
2018-09-20T02:57:21.306Z,0.00
2018-09-20T02:58:21.360Z,0.27
2018-09-20T02:59:21.365Z,0.49
2018-09-20T03:00:21.367Z,0.41
2018-09-20T03:01:21.389Z,0.25
2018-09-20T03:02:21.178Z,0.00
2018-09-20T03:03:21.593Z,0.00
2018-09-20T03:04:21.797Z,0.00
2018-09-20T03:05:22.005Z,0.00
2018-09-20T03:06:22.200Z,0.00
2018-09-20T03:07:22.200Z,0.00
2018-09-20T03:08:22.414Z,0.00
2018-09-20T03:09:22.383Z,0.00
2018-09-20T03:10:22.767Z,0.00
2018-09-20T03:11:23.075Z,0.00
2018-09-20T03:12:23.486Z,0.00
2018-09-20T03:13:23.935Z,0.00
2018-09-20T03:14:24.290Z,0.00
2018-09-20T03:15:24.476Z,0.00
2018-09-20T03:16:24.718Z,0.00
2018-09-20T03:17:24.858Z,0.00
2018-09-20T03:18:24.984Z,0.52
2018-09-20T03:19:25.001Z,0.21
2018-09-20T03:20:25.003Z,0.00
2018-09-20T03:21:25.128Z,0.00
2018-09-20T03:22:25.492Z,0.00
2018-09-20T03:23:25.552Z,0.07
2018-09-20T03:24:25.955Z,0.01
2018-09-20T03:25:26.231Z,0.00
2018-09-20T03:26:26.527Z,0.00
2018-09-20T03:27:26.946Z,0.00
2018-09-20T03:28:27.372Z,0.00
2018-09-20T03:29:27.688Z,0.00
2018-09-20T03:30:27.829Z,0.00
2018-09-20T03:31:27.854Z,0.00
2018-09-20T03:32:28.004Z,0.00
2018-09-20T03:33:28.336Z,0.00
2018-09-20T03:34:28.495Z,0.00
2018-09-20T03:35:28.618Z,0.00
2018-09-20T03:36:28.695Z,0.00
2018-09-20T03:37:28.726Z,0.00
2018-09-20T03:38:29.296Z,0.00
2018-09-20T03:39:29.324Z,0.00
2018-09-20T03:40:29.438Z,0.00
2018-09-20T03:41:29.459Z,0.00
2018-09-20T03:42:29.726Z,0.00
2018-09-20T03:43:29.984Z,0.00
2018-09-20T03:44:30.071Z,0.00
2018-09-20T03:45:30.098Z,0.00
2018-09-20T03:46:30.198Z,0.00
2018-09-20T03:47:30.474Z,0.00
2018-09-20T03:48:30.519Z,0.00
2018-09-20T03:49:30.622Z,0.00
2018-09-20T03:50:30.799Z,0.00
2018-09-20T03:51:31.005Z,0.00
2018-09-20T03:52:31.151Z,0.00
2018-09-20T03:53:31.572Z,0.00
2018-09-20T03:54:31.673Z,0.15
2018-09-20T03:55:31.789Z,0.06
2018-09-20T03:56:32.090Z,0.00
2018-09-20T03:57:32.109Z,0.00
2018-09-20T03:58:32.571Z,0.00
2018-09-20T03:59:32.789Z,0.00
2018-09-20T04:00:33.025Z,0.00
2018-09-20T04:01:33.440Z,0.00
2018-09-20T04:02:34.183Z,0.00
2018-09-20T04:03:34.786Z,0.00
2018-09-20T04:04:35.003Z,0.03
2018-09-20T04:05:34.905Z,0.18
2018-09-20T04:06:35.425Z,0.04
2018-09-20T04:07:35.748Z,0.00
2018-09-20T04:09:35.853Z,0.00
2018-09-20T04:10:36.061Z,0.00
2018-09-20T04:11:35.964Z,0.15
2018-09-20T04:12:36.158Z,0.03
2018-09-20T04:13:36.183Z,0.42
2018-09-20T04:14:36.608Z,0.39
2018-09-20T04:15:36.923Z,0.21
2018-09-20T04:16:37.100Z,0.13
2018-09-20T04:17:37.107Z,0.00
2018-09-20T04:18:37.116Z,0.00
2018-09-20T04:19:36.595Z,0.01
2018-09-20T04:20:37.809Z,0.00
2018-09-20T04:21:37.622Z,0.00
2018-09-20T04:22:37.918Z,0.18
2018-09-20T04:23:38.389Z,0.28
2018-09-20T04:24:38.816Z,0.03
2018-09-20T04:25:39.257Z,0.80
2018-09-20T04:27:39.560Z,0.49
2018-09-20T04:28:39.606Z,0.18
2018-09-20T04:29:39.771Z,1.27
2018-09-20T04:30:39.794Z,0.65
2018-09-20T04:31:40.320Z,0.35
2018-09-20T04:32:40.498Z,0.14
2018-09-20T04:33:40.533Z,1.52
2018-09-20T04:34:41.044Z,1.20
2018-09-20T04:35:40.656Z,0.51
2018-09-20T04:36:40.737Z,0.37
2018-09-20T04:37:40.937Z,0.24
2018-09-20T04:38:41.223Z,1.62
2018-09-20T04:39:41.414Z,0.51
2018-09-20T04:40:41.607Z,0.25
2018-09-20T04:41:41.981Z,0.44
2018-09-20T04:42:42.329Z,1.98
2018-09-20T04:43:42.669Z,0.79
2018-09-20T04:44:42.804Z,0.03
2018-09-20T04:45:42.875Z,0.23
2018-09-20T04:46:43.012Z,0.55
2018-09-20T04:47:43.134Z,0.00
2018-09-20T04:48:43.517Z,0.06
2018-09-20T04:49:43.613Z,0.88
2018-09-20T04:50:43.875Z,0.14
2018-09-20T04:51:44.021Z,0.00
2018-09-20T04:52:44.332Z,0.01
2018-09-20T04:53:44.418Z,0.11
2018-09-20T04:54:44.530Z,0.11
2018-09-20T04:55:44.800Z,0.01
2018-09-20T04:56:44.885Z,0.60
2018-09-20T04:57:44.999Z,0.01
2018-09-20T04:58:45.209Z,0.01
2018-09-20T04:59:45.516Z,0.00
2018-09-20T05:00:45.726Z,0.00
2018-09-20T05:01:45.729Z,0.00
2018-09-20T05:02:45.936Z,0.35
2018-09-20T05:03:46.173Z,0.27
2018-09-20T05:04:46.302Z,0.01
2018-09-20T05:05:46.372Z,0.00
2018-09-20T05:06:46.531Z,0.01
2018-09-20T05:07:46.824Z,0.28
2018-09-20T05:08:46.956Z,0.39
2018-09-20T05:09:47.145Z,0.01
2018-09-20T05:10:47.431Z,0.01
2018-09-20T05:11:47.644Z,0.56
2018-09-20T05:12:48.038Z,0.72
2018-09-20T05:13:48.457Z,0.81
2018-09-20T05:14:49.187Z,0.34
2018-09-20T05:15:49.802Z,0.06
2018-09-20T05:16:49.743Z,0.13
2018-09-20T05:17:50.223Z,0.01
2018-09-20T05:18:50.623Z,0.00
2018-09-20T05:19:51.376Z,0.46
2018-09-20T05:20:51.686Z,0.52
2018-09-20T05:21:51.578Z,0.11
2018-09-20T05:22:51.942Z,0.51
2018-09-20T05:23:52.278Z,0.99
2018-09-20T05:24:52.418Z,1.03
2018-09-20T05:25:52.516Z,1.00
2018-09-20T05:26:52.615Z,1.00
2018-09-20T05:27:52.755Z,0.42
2018-09-20T05:28:52.655Z,0.17
2018-09-20T05:29:53.273Z,0.25
2018-09-20T05:30:53.077Z,0.31
2018-09-20T05:31:53.473Z,0.21
2018-09-20T05:32:53.842Z,0.25
2018-09-20T05:33:54.410Z,0.37
2018-09-20T05:34:54.527Z,0.15
2018-09-20T05:35:54.538Z,0.20
2018-09-20T05:36:54.714Z,0.00
2018-09-20T05:37:54.710Z,0.00
2018-09-20T05:38:54.716Z,0.30
2018-09-20T05:39:54.853Z,0.53
2018-09-20T05:40:55.095Z,0.10
2018-09-20T05:41:55.336Z,0.00
2018-09-20T05:42:55.357Z,0.00
2018-09-20T05:43:55.850Z,0.08
2018-09-20T05:44:56.041Z,0.13
2018-09-20T05:45:56.164Z,0.35
2018-09-20T05:46:56.521Z,0.00
2018-09-20T05:47:56.975Z,0.04
2018-09-20T05:48:57.005Z,0.50
2018-09-20T05:49:57.122Z,0.00
2018-09-20T05:50:57.390Z,0.18
2018-09-20T05:51:57.394Z,0.52
2018-09-20T05:52:57.402Z,0.04
2018-09-20T05:53:57.546Z,0.41
2018-09-20T05:54:57.700Z,0.42
2018-09-20T05:55:57.844Z,0.24
2018-09-20T05:56:57.886Z,0.11
2018-09-20T05:57:58.103Z,0.44
2018-09-20T05:58:58.457Z,0.58
2018-09-20T05:59:58.658Z,0.27
2018-09-20T06:00:58.664Z,0.11
2018-09-20T06:01:58.726Z,0.20
2018-09-20T06:02:58.843Z,0.13
2018-09-20T06:03:58.969Z,0.08
2018-09-20T06:04:59.218Z,0.94
2018-09-20T06:05:59.612Z,0.42
2018-09-20T06:06:59.643Z,0.41
2018-09-20T06:07:59.887Z,0.18
2018-09-20T06:09:00.142Z,0.00
2018-09-20T06:10:00.623Z,0.38
2018-09-20T06:11:00.399Z,0.03
2018-09-20T06:12:00.471Z,0.30
2018-09-20T06:13:00.553Z,0.08
2018-09-20T06:14:00.641Z,0.00
2018-09-20T06:15:00.806Z,0.00
2018-09-20T06:16:00.887Z,0.18
2018-09-20T06:17:01.323Z,0.00
2018-09-20T06:18:01.764Z,0.00
2018-09-20T06:19:02.271Z,0.00
2018-09-20T06:20:02.007Z,0.00
2018-09-20T06:21:02.616Z,0.00
2018-09-20T06:22:02.710Z,0.00
2018-09-20T06:23:03.348Z,0.00
2018-09-20T06:24:03.511Z,0.00
2018-09-20T06:25:03.260Z,0.00
2018-09-20T06:26:04.295Z,0.00
2018-09-20T06:27:04.069Z,0.00
2018-09-20T13:13:20.980Z,1.10
2018-09-20T13:14:21.924Z,1.95
2018-09-20T13:15:50.578Z,1.90
2018-09-20T13:16:51.186Z,2.44
2018-09-20T13:17:51.544Z,4.47
2018-09-20T13:19:16.681Z,4.19
2018-09-20T13:20:16.877Z,2.24
2018-09-20T13:21:17.263Z,2.09
2018-09-20T13:22:17.476Z,1.80
2018-09-20T13:23:17.835Z,2.19
2018-09-20T13:24:38.587Z,4.38
2018-09-20T13:25:39.094Z,4.16
2018-09-20T13:26:39.054Z,3.61
2018-09-20T13:27:39.221Z,1.17
2018-09-20T13:29:36.504Z,4.41
2018-09-20T13:31:35.350Z,3.01
2018-09-20T13:32:36.226Z,2.19
2018-09-20T13:33:36.435Z,2.01
2018-09-20T13:34:36.865Z,1.07
2018-09-20T13:35:36.960Z,1.82
2018-09-20T13:36:37.071Z,2.76
2018-09-20T13:37:37.039Z,2.50
2018-09-20T13:38:37.247Z,2.90
2018-09-20T13:39:37.473Z,3.20
2018-09-20T13:41:37.704Z,2.77
2018-09-20T13:42:37.889Z,1.94
2018-09-20T13:43:38.158Z,3.02
2018-09-20T13:44:38.461Z,3.00
2018-09-20T13:45:38.770Z,2.98
2018-09-20T13:46:39.090Z,1.49
2018-09-20T13:47:39.280Z,3.67
2018-09-20T13:49:39.947Z,6.82
2018-09-20T13:50:39.571Z,6.52
2018-09-20T13:52:39.936Z,4.04
2018-09-20T13:53:39.852Z,4.85
2018-09-20T13:54:40.307Z,2.55
2018-09-20T13:55:40.685Z,2.85
2018-09-20T13:56:40.712Z,1.45
2018-09-20T13:57:40.705Z,1.74
2018-09-20T13:59:41.456Z,4.30
2018-09-20T14:00:41.594Z,3.14
2018-09-20T14:01:41.403Z,1.97
2018-09-20T14:02:41.745Z,2.57
2018-09-20T14:03:42.440Z,4.04
2018-09-20T14:04:42.573Z,2.52
2018-09-20T14:05:42.531Z,3.18
2018-09-20T14:07:43.166Z,3.22
2018-09-20T14:08:43.302Z,1.82
2018-09-20T14:09:43.681Z,1.02
2018-09-20T14:10:43.803Z,2.36
2018-09-20T14:11:43.638Z,3.90
2018-09-20T14:12:44.233Z,2.53
2018-09-20T14:13:44.248Z,2.30
2018-09-20T14:14:44.295Z,3.37
2018-09-20T14:16:59.968Z,2.34
2018-09-20T14:18:00.304Z,1.76
2018-09-20T14:19:00.615Z,3.06
2018-09-20T14:20:02.360Z,1.19
2018-09-20T14:21:02.652Z,2.09
2018-09-20T14:22:01.776Z,2.30
2018-09-20T14:23:01.931Z,2.85
2018-09-20T14:24:02.421Z,3.18
2018-09-20T14:25:02.640Z,1.06
2018-09-20T14:26:02.828Z,3.38
2018-09-20T14:27:03.376Z,2.86
2018-09-20T14:28:04.230Z,3.32
2018-09-20T14:29:04.442Z,5.03
2018-09-20T14:30:04.867Z,2.10
2018-09-20T14:31:04.696Z,1.97
2018-09-20T14:32:05.388Z,1.28
2018-09-20T14:33:05.706Z,0.59
2018-09-20T14:34:06.015Z,2.47
2018-09-20T14:35:06.497Z,2.52
2018-09-20T14:36:06.429Z,3.75
2018-09-20T14:37:06.651Z,3.76
2018-09-20T14:38:07.169Z,3.36
2018-09-20T14:39:06.955Z,1.50
2018-09-20T14:40:06.892Z,1.10
2018-09-20T14:41:07.380Z,1.32
2018-09-20T14:42:07.451Z,2.69
2018-09-20T14:43:07.564Z,4.63
2018-09-20T14:44:08.006Z,2.75
2018-09-20T14:45:08.244Z,1.60
2018-09-20T14:46:08.440Z,2.15
2018-09-20T14:47:09.068Z,1.30
2018-09-20T14:48:08.592Z,1.27
2018-09-20T14:49:09.047Z,0.70
2018-09-20T14:50:09.194Z,0.97
2018-09-20T14:51:09.361Z,3.06
2018-09-20T14:52:09.535Z,2.30
2018-09-20T14:53:09.635Z,4.40
2018-09-20T14:54:09.581Z,2.90
2018-09-20T14:55:10.289Z,2.92
2018-09-20T14:56:10.357Z,3.02
2018-09-20T14:57:10.937Z,1.92
2018-09-20T14:58:10.300Z,0.58
2018-09-20T14:59:11.029Z,1.94
2018-09-20T15:00:11.402Z,2.55
2018-09-20T15:01:11.258Z,2.47
2018-09-20T15:02:11.909Z,1.88
2018-09-20T15:03:12.223Z,1.49
2018-09-20T15:04:12.241Z,1.10
2018-09-20T15:05:12.375Z,2.33
2018-09-20T15:06:12.348Z,2.20
2018-09-20T15:07:12.666Z,4.93
2018-09-20T15:08:13.369Z,3.20
2018-09-20T15:09:13.236Z,4.58
2018-09-20T15:10:13.834Z,2.22
2018-09-20T15:11:13.931Z,1.65
2018-09-20T15:12:14.015Z,1.00
2018-09-20T15:13:14.213Z,1.27
2018-09-20T15:14:14.253Z,5.45
2018-09-20T15:15:14.800Z,3.29
2018-09-20T15:16:14.717Z,1.61
2018-09-20T15:17:14.606Z,3.20
2018-09-20T15:18:15.225Z,2.06
2018-09-20T15:19:15.306Z,1.31
2018-09-20T15:20:15.287Z,0.79
2018-09-20T15:21:15.680Z,2.74
2018-09-20T15:22:16.358Z,2.96
2018-09-20T15:23:16.377Z,1.07
2018-09-20T15:24:16.363Z,2.81
2018-09-20T15:25:16.929Z,1.08
2018-09-20T15:26:16.878Z,1.61
2018-09-20T15:27:17.583Z,1.44
2018-09-20T15:28:17.627Z,1.18
2018-09-20T15:29:17.943Z,2.16
2018-09-20T15:30:18.373Z,2.46
2018-09-20T15:31:18.879Z,1.12
2018-09-20T15:32:19.600Z,0.84
2018-09-20T15:33:20.021Z,1.69
2018-09-20T15:34:20.228Z,2.72
2018-09-20T15:35:20.662Z,1.14
2018-09-20T15:36:21.068Z,1.46
2018-09-20T15:37:21.173Z,1.42
2018-09-20T15:38:21.438Z,2.41
2018-09-20T15:39:21.799Z,1.56
2018-09-20T15:40:22.009Z,3.01
2018-09-20T15:41:22.070Z,1.99
2018-09-20T15:42:22.208Z,1.75
2018-09-20T15:43:22.295Z,1.17
2018-09-20T15:44:22.429Z,0.83
2018-09-20T15:45:22.669Z,0.93
2018-09-20T15:46:22.727Z,1.15
2018-09-20T15:48:22.566Z,2.48
2018-09-20T15:49:22.696Z,1.71
2018-09-20T15:50:22.846Z,1.42
2018-09-20T15:51:22.953Z,1.90
2018-09-20T15:52:23.392Z,4.18
2018-09-20T15:53:23.621Z,2.41
2018-09-20T15:54:23.622Z,1.09
2018-09-20T15:55:23.758Z,3.40
2018-09-20T15:57:24.026Z,3.42
2018-09-20T15:58:24.125Z,3.05
2018-09-20T15:59:24.235Z,2.12
2018-09-20T16:00:24.356Z,3.28
2018-09-20T16:01:24.599Z,2.31
2018-09-20T16:02:24.536Z,2.94
2018-09-20T16:03:25.072Z,1.71
2018-09-20T16:04:25.200Z,2.02
2018-09-20T16:05:25.109Z,1.43
2018-09-20T16:06:25.228Z,0.52
2018-09-20T16:07:25.174Z,0.08
2018-09-20T16:08:25.623Z,0.24
2018-09-20T16:09:26.334Z,0.76
2018-09-20T16:10:26.482Z,1.75
2018-09-20T16:11:26.653Z,1.72
2018-09-20T16:12:26.583Z,2.76
2018-09-20T16:13:26.896Z,4.11
2018-09-20T16:14:27.462Z,4.61
2018-09-20T16:15:27.638Z,4.37
2018-09-20T16:17:28.089Z,2.31
2018-09-20T16:18:27.925Z,1.64
2018-09-20T16:19:28.696Z,2.43
2018-09-20T16:20:28.923Z,2.77
2018-09-20T16:21:28.746Z,1.36
2018-09-20T16:22:29.011Z,0.51
2018-09-20T16:23:29.458Z,0.75
2018-09-20T16:24:29.460Z,2.36
2018-09-20T16:25:29.261Z,1.44
2018-09-20T16:26:30.100Z,2.14
2018-09-20T16:27:30.201Z,0.77
2018-09-20T16:28:30.393Z,1.10
2018-09-20T16:29:30.623Z,1.08
2018-09-20T16:30:30.567Z,0.54
2018-09-20T16:31:30.893Z,0.62
2018-09-20T16:32:31.637Z,0.79
2018-09-20T16:33:31.334Z,0.56
2018-09-20T16:34:31.261Z,0.61
2018-09-20T16:35:31.751Z,1.72
2018-09-20T16:36:32.502Z,3.07
2018-09-20T16:37:32.516Z,0.98
2018-09-20T16:38:32.848Z,0.55
2018-09-20T16:39:33.354Z,1.66
2018-09-20T16:40:33.778Z,1.10
2018-09-20T16:41:33.979Z,2.73
2018-09-20T16:42:34.296Z,1.26
2018-09-20T16:43:34.711Z,0.89
2018-09-20T16:44:34.724Z,2.22
2018-09-20T16:45:35.747Z,1.64
2018-09-20T16:46:35.764Z,1.30
2018-09-20T16:47:36.273Z,1.93
2018-09-20T16:48:36.584Z,2.35
2018-09-20T16:49:36.259Z,1.95
2018-09-20T16:50:37.128Z,1.85
2018-09-20T16:51:37.107Z,3.95
2018-09-20T16:52:37.621Z,3.42
2018-09-20T16:53:37.735Z,3.61
2018-09-20T16:54:37.841Z,2.26
2018-09-20T16:55:38.031Z,1.30
2018-09-20T16:56:38.378Z,1.14
2018-09-20T16:57:38.944Z,2.18
2018-09-20T16:58:38.613Z,0.78
2018-09-20T16:59:39.077Z,1.07
2018-09-20T17:00:39.486Z,1.70
2018-09-20T17:01:39.563Z,0.86
2018-09-20T17:02:39.561Z,1.16
2018-09-20T17:03:40.445Z,0.63
2018-09-20T17:04:40.729Z,0.69
2018-09-20T17:05:40.660Z,0.42
2018-09-20T17:06:41.103Z,1.80
2018-09-20T17:07:41.041Z,2.86
2018-09-20T17:08:41.694Z,0.90
2018-09-20T17:09:41.972Z,0.17
2018-09-20T17:10:41.950Z,0.85
2018-09-20T17:11:42.507Z,0.40
2018-09-20T17:12:42.170Z,0.54
2018-09-20T17:13:42.370Z,1.42
2018-09-20T17:14:42.403Z,2.41
2018-09-20T17:15:42.973Z,1.28
2018-09-20T17:16:43.133Z,1.33
2018-09-20T17:17:42.949Z,1.30
2018-09-20T17:18:43.526Z,0.55
2018-09-20T17:19:43.833Z,1.19
2018-09-20T17:20:44.057Z,0.49
2018-09-20T17:21:44.003Z,0.90
2018-09-20T17:22:44.848Z,0.77
2018-09-20T17:23:45.253Z,1.73
2018-09-20T17:24:44.974Z,0.87
2018-09-20T17:25:45.711Z,0.56
2018-09-20T17:26:45.694Z,0.49
2018-09-20T17:27:46.176Z,0.97
2018-09-20T17:28:46.369Z,0.93
2018-09-20T17:29:46.787Z,0.83
2018-09-20T17:30:46.712Z,0.86
2018-09-20T17:31:47.528Z,0.62
2018-09-20T17:32:47.203Z,0.62
2018-09-20T17:33:47.328Z,1.42
2018-09-20T17:34:47.574Z,1.01
2018-09-20T17:35:47.588Z,0.80
2018-09-20T17:36:47.808Z,0.88
2018-09-20T17:37:48.272Z,0.38
2018-09-20T17:38:47.900Z,0.07
2018-09-20T17:39:48.593Z,0.77
2018-09-20T17:40:48.776Z,0.31
2018-09-20T17:41:48.477Z,0.49
2018-09-20T17:42:49.223Z,1.14
2018-09-20T17:43:50.051Z,0.51
2018-09-20T17:44:49.755Z,0.30
2018-09-20T17:45:50.168Z,0.13
2018-09-20T17:46:50.459Z,0.01
2018-09-20T17:47:51.100Z,0.81
2018-09-20T17:48:51.405Z,0.28
2018-09-20T17:49:51.453Z,1.13
2018-09-20T17:50:51.639Z,0.79
2018-09-20T17:51:52.177Z,1.37
2018-09-20T17:52:52.263Z,0.83
2018-09-20T17:53:52.308Z,1.36
2018-09-20T17:54:52.474Z,0.48
2018-09-20T17:55:52.706Z,0.10
2018-09-20T17:56:52.636Z,0.66
2018-09-20T17:57:52.836Z,0.24
2018-09-20T17:58:52.934Z,0.30
2018-09-20T17:59:53.025Z,0.18
2018-09-20T18:00:53.548Z,0.31
2018-09-20T18:01:53.254Z,0.28
2018-09-20T18:02:53.496Z,0.60
2018-09-20T18:03:53.944Z,0.11
2018-09-20T18:04:54.110Z,0.34
2018-09-20T18:05:54.208Z,1.25
2018-09-20T18:06:54.445Z,0.51
2018-09-20T18:07:54.453Z,1.15
2018-09-20T18:08:55.240Z,0.34
2018-09-20T18:09:55.504Z,0.87
2018-09-20T18:10:56.172Z,1.08
2018-09-20T18:11:55.700Z,1.42
2018-09-20T18:12:56.105Z,0.93
2018-09-20T18:13:56.464Z,0.46
2018-09-20T18:14:56.913Z,0.46
2018-09-20T18:15:57.492Z,0.56
2018-09-20T18:16:57.563Z,0.82
2018-09-20T18:17:57.735Z,0.49
2018-09-20T18:18:57.644Z,0.13
2018-09-20T18:19:58.218Z,0.01
2018-09-20T18:20:58.508Z,0.07
2018-09-20T18:21:58.442Z,0.08
2018-09-20T18:22:58.531Z,0.25
2018-09-20T18:23:58.856Z,0.66
2018-09-20T18:24:58.923Z,0.51
2018-09-20T18:25:59.554Z,0.36
2018-09-20T18:26:59.557Z,1.13
2018-09-20T18:27:59.724Z,0.95
2018-09-20T18:28:59.890Z,0.48
2018-09-20T18:29:59.963Z,0.20
2018-09-20T18:30:59.862Z,0.80
2018-09-20T18:32:00.515Z,0.39
2018-09-20T18:33:00.466Z,0.23
2018-09-20T18:34:03.840Z,0.79
2018-09-20T18:35:01.254Z,0.91
2018-09-20T18:36:01.196Z,1.79
2018-09-20T18:37:02.069Z,0.38
2018-09-20T18:38:02.362Z,0.01
2018-09-20T18:39:02.904Z,0.21
2018-09-20T18:40:03.524Z,0.72
2018-09-20T18:41:03.835Z,1.32
2018-09-20T18:42:04.054Z,0.76
2018-09-20T18:43:04.376Z,1.91
2018-09-20T18:44:04.441Z,0.46
2018-09-20T18:45:04.789Z,0.92
2018-09-20T18:46:04.999Z,1.14
2018-09-20T18:47:05.023Z,2.94
2018-09-20T18:48:05.336Z,1.69
2018-09-20T18:49:05.444Z,1.46
2018-09-20T18:50:05.877Z,1.83
2018-09-20T18:51:06.052Z,1.31
2018-09-20T18:52:06.268Z,1.59
2018-09-20T18:53:06.898Z,1.61
2018-09-20T18:54:06.897Z,1.01
2018-09-20T18:55:06.387Z,0.51
2018-09-20T18:56:07.088Z,0.55
2018-09-20T18:57:06.440Z,0.96
2018-09-20T18:58:07.554Z,1.00
2018-09-20T18:59:07.504Z,0.83
2018-09-20T19:00:07.730Z,0.64
2018-09-20T19:01:07.891Z,0.10
2018-09-20T19:02:08.044Z,0.35
2018-09-20T19:03:08.422Z,0.38
2018-09-20T19:04:08.686Z,0.42
2018-09-20T19:05:09.626Z,1.19
2018-09-20T19:06:09.492Z,0.53
2018-09-20T19:07:10.181Z,0.42
2018-09-20T19:08:10.414Z,0.38
2018-09-20T19:09:10.301Z,1.06
2018-09-20T19:10:10.874Z,0.59
2018-09-20T19:11:11.154Z,0.35
2018-09-20T19:12:11.271Z,0.23
2018-09-20T19:13:11.427Z,0.75
2018-09-20T19:14:11.542Z,0.03
2018-09-20T19:15:11.523Z,0.17
2018-09-20T19:16:11.878Z,0.14
2018-09-20T19:17:12.470Z,0.94
2018-09-20T19:18:12.494Z,0.52
2018-09-20T19:19:12.296Z,0.75
2018-09-20T19:20:12.721Z,1.49
2018-09-20T19:21:13.152Z,0.32
2018-09-20T19:22:13.645Z,0.57
2018-09-20T19:23:13.670Z,0.27
2018-09-20T19:24:13.750Z,0.01
2018-09-20T19:26:13.797Z,0.00
2018-09-20T19:27:13.726Z,0.21
2018-09-20T19:28:14.348Z,0.52
2018-09-20T19:29:14.424Z,0.49
2018-09-20T19:30:14.912Z,0.86
2018-09-20T19:31:14.741Z,1.00
2018-09-20T19:32:14.723Z,1.31
2018-09-20T19:33:15.154Z,1.72
2018-09-20T19:34:15.771Z,1.85
2018-09-20T19:35:16.134Z,1.50
2018-09-20T19:36:16.284Z,0.63
2018-09-20T19:37:16.287Z,1.14
2018-09-20T19:38:16.238Z,1.72
2018-09-20T19:39:16.475Z,1.38
2018-09-20T19:40:17.224Z,1.64
2018-09-20T19:41:17.255Z,1.33
2018-09-20T19:42:17.867Z,1.20
2018-09-20T19:43:17.749Z,1.03
2018-09-20T19:44:18.849Z,0.42
2018-09-20T19:45:18.821Z,0.34
2018-09-20T19:46:19.655Z,1.00
2018-09-20T19:47:20.067Z,0.98
2018-09-20T19:48:22.903Z,0.08
2018-09-20T19:49:20.402Z,0.17
2018-09-20T19:50:21.313Z,0.74
2018-09-20T19:51:21.629Z,0.66
2018-09-20T19:52:21.673Z,0.11
2018-09-20T19:53:21.939Z,0.45
2018-09-20T19:54:21.953Z,0.13
2018-09-20T19:55:22.041Z,0.80
2018-09-20T19:56:22.015Z,0.71
2018-09-20T19:57:22.381Z,1.18
2018-09-20T19:58:22.703Z,0.77
2018-09-20T19:59:23.007Z,1.21
2018-09-20T20:00:23.185Z,0.80
2018-09-20T20:01:23.330Z,0.97
2018-09-20T20:02:23.694Z,0.89
2018-09-20T20:03:24.168Z,0.81
2018-09-20T20:04:23.964Z,0.36
2018-09-20T20:05:24.476Z,0.97
2018-09-20T20:06:24.799Z,1.18
2018-09-20T20:07:25.334Z,1.69
2018-09-20T20:08:25.513Z,1.13
2018-09-20T20:09:25.353Z,1.00
2018-09-20T20:11:25.781Z,0.62
2018-09-20T20:12:26.221Z,0.84
2018-09-20T20:13:26.774Z,0.56
2018-09-20T20:14:26.633Z,0.66
2018-09-20T20:15:27.161Z,1.07
2018-09-20T20:16:27.171Z,0.59
2018-09-20T20:17:27.563Z,0.66
2018-09-20T20:18:27.875Z,0.38
2018-09-20T20:19:28.285Z,0.14
2018-09-20T20:20:29.198Z,0.32
2018-09-20T20:21:28.509Z,0.95
2018-09-20T20:22:28.986Z,0.90
2018-09-20T20:23:29.585Z,1.82
2018-09-20T20:24:29.506Z,1.16
2018-09-20T20:25:30.103Z,1.31